Time;durP1;ratioP1;P1;durP2;ratioP2;P2;SDS_P1;SDS_P2;PMS_P1;PMS_P2;Temp;Humidity;BMP_temperature;BMP_pressure;BME280_temperature;BME280_humidity;BME280_pressure;Samples;Min_cycle;Max_cycle;Signal;HPM_P1;HPM_P2
2023/08/20 12:25:15;;;;;;;9.00;2.38;;;28.80;98.10;;;;;;3146529;26;20123;-80
2023/08/20 12:28:04;;;;;;;7.47;2.05;;;28.70;97.90;;;;;;5109844;28;20048;-83
2023/08/20 12:30:50;;;;;;;11.82;2.28;;;29.00;97.80;;;;;;5110992;28;20164;-84
2023/08/20 12:33:36;;;;;;;11.00;2.50;;;29.40;97.40;;;;;;5113797;28;20059;-80
2023/08/20 12:36:22;;;;;;;10.18;2.25;;;29.60;96.70;;;;;;5112318;28;20048;-84
2023/08/20 12:39:09;;;;;;;10.73;2.03;;;30.10;96.20;;;;;;5111451;28;20063;-82
2023/08/20 12:41:55;;;;;;;9.23;1.92;;;30.80;95.20;;;;;;5113444;28;20130;-79
2023/08/20 12:44:45;;;;;;;5.72;1.45;;;31.00;94.60;;;;;;5110118;28;20059;-90
2023/08/20 12:47:31;;;;;;;17.25;3.35;;;30.60;93.00;;;;;;5091866;28;20088;-81
2023/08/20 12:50:18;;;;;;;11.00;2.45;;;30.10;94.70;;;;;;5091271;28;20074;-82
2023/08/20 12:53:04;;;;;;;10.57;2.92;;;30.10;95.00;;;;;;5092838;28;20044;-82
2023/08/20 12:55:51;;;;;;;9.43;2.50;;;30.60;95.10;;;;;;5097927;28;20043;-84
2023/08/20 12:58:37;;;;;;;9.75;2.58;;;30.90;94.10;;;;;;5106497;28;20058;-76
2023/08/20 13:01:25;;;;;;;9.93;2.30;;;30.00;94.70;;;;;;5103081;28;20048;-85
2023/08/20 13:04:11;;;;;;;10.07;1.90;;;29.40;95.40;;;;;;5104537;28;20064;-79
2023/08/20 13:06:58;;;;;;;12.90;2.75;;;29.00;96.30;;;;;;5094224;28;20055;-80
2023/08/20 13:09:44;;;;;;;11.80;2.30;;;29.30;96.00;;;;;;5093443;28;20201;-82
2023/08/20 13:12:33;;;;;;;12.02;2.30;;;28.90;96.10;;;;;;5095160;28;20044;-84
2023/08/20 13:15:21;;;;;;;8.88;1.80;;;28.60;96.00;;;;;;5095666;28;20131;-87
2023/08/20 13:18:08;;;;;;;7.85;1.83;;;29.50;95.30;;;;;;5097456;28;20472;-89
2023/08/20 13:20:55;;;;;;;9.90;2.30;;;30.40;94.20;;;;;;5081003;28;20076;-89
2023/08/20 13:23:42;;;;;;;9.38;2.22;;;30.70;93.50;;;;;;5096660;28;20704;-85
2023/08/20 13:26:28;;;;;;;13.23;2.53;;;31.10;92.80;;;;;;5099366;28;20109;-81
2023/08/20 13:29:14;;;;;;;13.10;2.95;;;30.30;92.90;;;;;;5100221;28;20147;-79
2023/08/20 13:32:00;;;;;;;9.07;2.47;;;31.00;93.20;;;;;;5100048;28;20071;-80
2023/08/20 13:34:46;;;;;;;9.88;2.50;;;32.00;92.20;;;;;;5105493;28;20399;-85
2023/08/20 13:37:33;;;;;;;9.98;2.47;;;32.60;91.70;;;;;;5103316;28;20075;-82
2023/08/20 13:40:19;;;;;;;10.38;1.77;;;33.00;91.00;;;;;;5102894;28;20076;-83
2023/08/20 13:43:06;;;;;;;12.68;2.53;;;33.60;90.20;;;;;;5094980;28;20079;-89
2023/08/20 13:45:52;;;;;;;8.93;1.98;;;34.50;88.90;;;;;;5094753;28;20052;-79
2023/08/20 13:48:38;;;;;;;11.48;2.67;;;35.30;86.40;;;;;;5093624;28;20044;-88
2023/08/20 13:51:25;;;;;;;12.00;2.55;;;35.80;85.10;;;;;;5095073;28;20048;-85
2023/08/20 13:54:11;;;;;;;10.35;1.85;;;36.00;83.70;;;;;;5095467;28;20044;-86
2023/08/20 13:56:57;;;;;;;12.15;2.53;;;36.10;82.00;;;;;;5094395;28;20408;-85
2023/08/20 13:59:43;;;;;;;9.13;1.95;;;36.50;81.70;;;;;;5096595;28;20059;-92
2023/08/20 14:02:29;;;;;;;12.20;2.13;;;36.30;80.80;;;;;;5095923;28;20052;-88
2023/08/20 14:05:15;;;;;;;9.80;1.95;;;36.70;80.40;;;;;;5095548;28;20113;-87
2023/08/20 14:08:02;;;;;;;10.98;2.63;;;36.70;78.80;;;;;;5093645;28;20044;-82
2023/08/20 14:10:48;;;;;;;12.52;2.55;;;37.70;77.70;;;;;;5092024;28;20048;-77
2023/08/20 14:13:35;;;;;;;11.85;2.83;;;37.80;75.20;;;;;;5094694;28;20059;-80
2023/08/20 14:16:21;;;;;;;10.48;1.75;;;37.40;74.70;;;;;;5094352;28;20048;-87
2023/08/20 14:19:07;;;;;;;9.90;2.35;;;37.80;72.50;;;;;;5093289;28;20052;-86
2023/08/20 14:21:53;;;;;;;8.20;1.90;;;37.60;72.40;;;;;;5091940;28;20040;-80
2023/08/20 14:24:39;;;;;;;9.18;2.15;;;37.70;72.20;;;;;;5091595;28;20494;-80
2023/08/20 14:27:26;;;;;;;9.40;2.10;;;37.80;72.10;;;;;;5091858;28;20059;-87
2023/08/20 14:30:12;;;;;;;7.13;1.92;;;37.90;71.70;;;;;;5094422;28;20051;-83
2023/08/20 14:32:58;;;;;;;6.72;1.77;;;38.20;71.20;;;;;;5093621;28;20051;-82
2023/08/20 14:35:44;;;;;;;9.30;1.88;;;37.90;70.60;;;;;;5094219;28;20063;-80
2023/08/20 14:38:31;;;;;;;8.93;2.08;;;38.10;69.50;;;;;;5095442;28;20056;-86
2023/08/20 14:41:17;;;;;;;7.97;1.85;;;37.90;68.70;;;;;;5099536;28;20044;-81
2023/08/20 14:44:03;;;;;;;5.70;1.70;;;37.90;69.50;;;;;;5098220;28;20062;-79
2023/08/20 14:46:49;;;;;;;9.15;2.22;;;38.00;69.60;;;;;;5097261;28;20066;-80
2023/08/20 14:49:35;;;;;;;10.07;2.03;;;38.10;68.50;;;;;;5097944;28;20052;-81
2023/08/20 14:52:21;;;;;;;6.78;1.83;;;38.30;68.60;;;;;;5099278;28;20085;-83
2023/08/20 14:55:09;;;;;;;7.72;1.88;;;38.50;67.30;;;;;;5098630;28;20055;-79
2023/08/20 14:57:55;;;;;;;8.75;1.95;;;38.70;66.70;;;;;;5098688;28;20051;-77
2023/08/20 15:00:41;;;;;;;7.22;1.92;;;38.80;66.60;;;;;;5098218;28;20048;-86
2023/08/20 15:03:27;;;;;;;8.80;2.17;;;38.50;66.90;;;;;;5097053;28;20048;-80
2023/08/20 15:06:14;;;;;;;8.40;1.90;;;38.60;66.40;;;;;;5092850;28;20048;-78
2023/08/20 15:09:00;;;;;;;7.28;1.73;;;38.80;66.10;;;;;;5093911;28;20140;-81
2023/08/20 15:11:47;;;;;;;7.85;2.05;;;39.00;66.70;;;;;;5093439;28;20138;-80
2023/08/20 15:14:33;;;;;;;6.85;1.88;;;39.20;66.00;;;;;;5096413;28;20139;-85
2023/08/20 15:17:19;;;;;;;7.45;1.60;;;38.80;64.80;;;;;;5093576;28;20048;-80
2023/08/20 15:20:09;;;;;;;9.95;1.90;;;38.60;64.30;;;;;;5093733;28;20506;-78
2023/08/20 15:22:55;;;;;;;7.35;1.80;;;38.60;64.70;;;;;;5095618;28;20048;-80
2023/08/20 15:25:46;;;;;;;8.05;2.03;;;37.80;64.90;;;;;;5094405;28;20489;-74
2023/08/20 15:28:32;;;;;;;9.73;2.42;;;37.70;64.50;;;;;;5093910;28;20569;-81
2023/08/20 15:31:18;;;;;;;11.50;2.00;;;37.50;65.10;;;;;;5094415;28;20044;-77
2023/08/20 15:34:05;;;;;;;8.80;1.85;;;37.40;65.30;;;;;;5094285;28;20083;-76
2023/08/20 15:36:51;;;;;;;5.70;1.50;;;37.80;65.30;;;;;;5096387;28;20051;-82
2023/08/20 15:39:39;;;;;;;6.78;2.15;;;37.20;65.30;;;;;;5078909;28;20507;-81
2023/08/20 15:42:25;;;;;;;9.38;2.25;;;37.60;65.00;;;;;;5101602;28;20047;-76
2023/08/20 15:45:11;;;;;;;8.70;1.63;;;37.60;65.50;;;;;;5090368;28;20044;-76
2023/08/20 15:47:57;;;;;;;11.63;2.90;;;37.80;65.40;;;;;;5090602;28;20574;-78
2023/08/20 15:50:43;;;;;;;9.90;1.85;;;37.70;64.90;;;;;;5098401;28;20081;-79
2023/08/20 15:53:29;;;;;;;11.48;2.72;;;37.30;65.60;;;;;;5103081;28;20054;-85
2023/08/20 15:56:18;;;;;;;8.38;2.08;;;36.20;66.20;;;;;;5111425;28;20044;-78
2023/08/20 15:59:05;;;;;;;7.60;2.10;;;34.80;67.70;;;;;;5111329;28;20047;-76
2023/08/20 16:01:51;;;;;;;9.60;1.75;;;33.60;69.60;;;;;;5111515;28;20036;-76
2023/08/20 16:04:37;;;;;;;9.88;2.53;;;32.40;71.40;;;;;;5111409;28;20048;-79
2023/08/20 16:07:24;;;;;;;7.50;1.77;;;31.50;73.10;;;;;;5112621;28;20059;-80
2023/08/20 16:10:10;;;;;;;9.27;1.95;;;30.80;74.30;;;;;;5110174;28;20051;-77
2023/08/20 16:12:56;;;;;;;8.48;2.47;;;30.00;76.60;;;;;;5111441;28;20091;-79
2023/08/20 16:15:43;;;;;;;8.88;2.33;;;29.40;77.70;;;;;;5112164;28;20055;-85
2023/08/20 16:18:29;;;;;;;9.18;1.60;;;28.90;78.70;;;;;;5109352;28;20048;-82
2023/08/20 16:21:15;;;;;;;12.27;2.20;;;28.60;79.70;;;;;;5111255;28;20375;-77
2023/08/20 16:24:03;;;;;;;6.82;1.42;;;28.20;80.30;;;;;;5111359;28;20055;-76
2023/08/20 16:26:49;;;;;;;6.72;1.75;;;27.90;81.80;;;;;;5110159;28;20047;-78
2023/08/20 16:29:35;;;;;;;10.75;2.20;;;27.60;83.30;;;;;;5109416;28;20055;-78
2023/08/20 16:32:21;;;;;;;11.20;2.20;;;27.30;84.80;;;;;;5109982;28;20040;-76
2023/08/20 16:35:09;;;;;;;8.93;1.88;;;27.00;87.00;;;;;;5111141;28;20051;-81
2023/08/20 16:37:55;;;;;;;8.40;2.08;;;26.90;89.10;;;;;;5110623;28;20101;-80
2023/08/20 16:40:41;;;;;;;12.00;2.70;;;26.60;90.10;;;;;;5095187;28;20394;-83
2023/08/20 16:43:27;;;;;;;10.05;2.70;;;26.50;90.40;;;;;;5095496;28;20059;-75
2023/08/20 16:46:13;;;;;;;10.88;4.07;;;26.30;91.00;;;;;;5110275;28;20051;-85
2023/08/20 16:49:03;;;;;;;11.73;3.50;;;26.20;91.00;;;;;;5111370;28;20427;-85
2023/08/20 16:51:49;;;;;;;12.15;2.90;;;26.10;91.20;;;;;;5110475;28;20047;-83
2023/08/20 16:54:35;;;;;;;10.65;2.28;;;26.10;90.50;;;;;;5111741;28;20138;-76
2023/08/20 16:57:21;;;;;;;7.25;1.80;;;25.90;90.30;;;;;;5091284;28;20059;-82
2023/08/20 17:00:08;;;;;;;8.38;2.00;;;25.70;91.40;;;;;;5094924;28;20050;-75
2023/08/20 17:02:54;;;;;;;9.57;2.10;;;25.50;92.70;;;;;;5111656;28;20209;-74
2023/08/20 17:05:42;;;;;;;9.48;2.63;;;25.30;93.70;;;;;;5110692;28;20044;-75
2023/08/20 17:08:28;;;;;;;14.48;2.28;;;25.10;94.50;;;;;;5111227;28;20075;-76
2023/08/20 17:11:15;;;;;;;10.02;2.30;;;24.80;95.60;;;;;;5109972;28;20052;-81
2023/08/20 17:14:01;;;;;;;6.63;1.90;;;24.70;96.40;;;;;;5110223;28;20040;-77
2023/08/20 17:16:48;;;;;;;12.10;2.85;;;24.50;97.10;;;;;;5110954;28;20061;-75
2023/08/20 17:19:34;;;;;;;10.93;2.35;;;24.40;97.80;;;;;;5111454;28;20063;-75
2023/08/20 17:22:20;;;;;;;11.43;2.80;;;24.30;98.50;;;;;;5094621;28;20055;-75
2023/08/20 17:25:07;;;;;;;11.23;2.95;;;24.00;99.40;;;;;;5108459;28;20106;-77
2023/08/20 17:27:53;;;;;;;10.30;2.40;;;24.00;99.90;;;;;;5097396;28;20059;-77
2023/08/20 17:30:39;;;;;;;10.60;2.55;;;23.90;99.90;;;;;;5108867;28;20067;-77
2023/08/20 17:33:28;;;;;;;9.93;2.00;;;23.80;99.90;;;;;;5109281;28;20043;-81
2023/08/20 17:36:15;;;;;;;11.60;2.15;;;23.60;99.90;;;;;;5108809;28;20474;-82
2023/08/20 17:39:03;;;;;;;10.82;2.03;;;23.50;99.90;;;;;;5111975;28;20056;-81
2023/08/20 17:41:49;;;;;;;9.05;2.22;;;23.40;99.90;;;;;;5114723;28;20139;-81
2023/08/20 17:44:35;;;;;;;8.52;2.13;;;23.30;99.90;;;;;;5114476;28;20079;-78
2023/08/20 17:47:22;;;;;;;9.80;2.00;;;23.10;99.90;;;;;;5116777;28;20036;-80
2023/08/20 17:50:08;;;;;;;11.95;2.45;;;23.00;99.90;;;;;;5117921;28;20047;-78
2023/08/20 17:52:54;;;;;;;10.15;2.05;;;22.90;99.90;;;;;;5119085;28;20059;-82
2023/08/20 17:55:42;;;;;;;9.52;2.67;;;22.90;99.90;;;;;;5117192;28;20047;-80
2023/08/20 17:58:28;;;;;;;8.98;1.58;;;22.80;99.90;;;;;;5114749;28;20055;-81
2023/08/20 18:01:14;;;;;;;9.95;1.73;;;22.60;99.90;;;;;;5112755;28;20417;-74
2023/08/20 18:04:01;;;;;;;11.23;1.67;;;22.40;99.90;;;;;;5113632;28;20058;-77
2023/08/20 18:06:48;;;;;;;5.30;1.52;;;22.30;99.90;;;;;;5112110;28;20055;-75
2023/08/20 18:09:36;;;;;;;6.20;1.30;;;22.30;99.90;;;;;;5112177;28;20534;-77
2023/08/20 18:12:22;;;;;;;6.80;1.38;;;22.10;99.90;;;;;;5077942;28;20098;-79
2023/08/20 18:15:09;;;;;;;10.52;1.55;;;22.00;99.90;;;;;;5095571;28;20051;-79
2023/08/20 18:17:55;;;;;;;7.00;1.70;;;21.90;99.90;;;;;;5094497;28;20048;-77
2023/08/20 18:20:41;;;;;;;13.30;1.85;;;21.80;99.90;;;;;;5100052;28;20040;-77
2023/08/20 18:23:30;;;;;;;11.02;1.88;;;21.70;99.90;;;;;;5091113;28;20055;-79
2023/08/20 18:26:16;;;;;;;14.43;2.15;;;21.50;99.90;;;;;;5046956;28;1259448;-76
2023/08/20 18:29:03;;;;;;;9.77;1.60;;;21.40;99.90;;;;;;5090272;28;20059;-77
2023/08/20 18:31:50;;;;;;;10.63;1.50;;;21.30;99.90;;;;;;5105573;28;20452;-78
2023/08/20 18:34:37;;;;;;;12.60;2.33;;;21.20;99.90;;;;;;5090982;28;20127;-77
2023/08/20 18:37:24;;;;;;;9.10;1.65;;;21.00;99.90;;;;;;5090716;28;20432;-76
2023/08/20 18:40:10;;;;;;;11.27;2.58;;;21.10;99.90;;;;;;5104241;28;20146;-79
2023/08/20 18:42:56;;;;;;;8.98;1.77;;;21.00;99.90;;;;;;5091354;28;20048;-78
2023/08/20 18:45:43;;;;;;;15.50;2.33;;;20.90;99.90;;;;;;5076514;28;20499;-77
2023/08/20 18:48:33;;;;;;;12.07;2.35;;;20.90;99.90;;;;;;5106053;28;20136;-79
2023/08/20 18:51:24;;;;;;;13.88;1.92;;;20.80;99.90;;;;;;5110407;28;20409;-76
2023/08/20 18:54:10;;;;;;;19.40;2.90;;;20.70;99.90;;;;;;5110689;28;20052;-80
2023/08/20 18:56:57;;;;;;;12.88;2.22;;;20.70;99.90;;;;;;5112028;28;20491;-79
2023/08/20 18:59:44;;;;;;;12.98;2.38;;;20.60;99.90;;;;;;5111152;28;20056;-79
2023/08/20 19:02:30;;;;;;;9.10;1.83;;;20.50;99.90;;;;;;5113106;28;20415;-81
2023/08/20 19:05:17;;;;;;;9.98;1.95;;;20.40;99.90;;;;;;5113736;28;20043;-84
2023/08/20 19:08:03;;;;;;;10.05;2.22;;;20.40;99.90;;;;;;5111290;28;20797;-80
2023/08/20 19:10:50;;;;;;;9.35;2.15;;;20.30;99.90;;;;;;5098583;28;20479;-78
2023/08/20 19:13:36;;;;;;;12.13;2.08;;;20.30;99.90;;;;;;5108793;28;20060;-79
2023/08/20 19:16:22;;;;;;;11.32;2.42;;;20.20;99.90;;;;;;5096509;28;20514;-77
2023/08/20 19:19:08;;;;;;;11.90;3.53;;;20.20;99.90;;;;;;5111217;28;20065;-80
2023/08/20 19:21:55;;;;;;;11.48;2.85;;;20.10;99.90;;;;;;5110117;28;20051;-79
2023/08/20 19:24:41;;;;;;;10.30;2.00;;;20.10;99.90;;;;;;5108549;28;20048;-85
2023/08/20 19:27:27;;;;;;;10.50;1.77;;;20.10;99.90;;;;;;5109155;28;20074;-80
2023/08/20 19:30:14;;;;;;;7.68;1.63;;;20.00;99.90;;;;;;5109577;28;20120;-79
2023/08/20 19:33:01;;;;;;;10.80;2.05;;;19.90;99.90;;;;;;5109997;28;20102;-87
2023/08/20 19:35:47;;;;;;;10.35;1.90;;;19.90;99.90;;;;;;5109632;28;20756;-81
2023/08/20 19:38:34;;;;;;;8.68;2.42;;;19.80;99.90;;;;;;5111358;28;20409;-77
2023/08/20 19:41:20;;;;;;;11.45;3.30;;;19.80;99.90;;;;;;5110762;28;20122;-77
2023/08/20 19:44:07;;;;;;;13.18;3.92;;;19.70;99.90;;;;;;5111217;28;20055;-85
2023/08/20 19:46:53;;;;;;;10.23;3.70;;;19.60;99.90;;;;;;5109883;28;20055;-80
2023/08/20 19:49:39;;;;;;;11.05;3.45;;;19.50;99.90;;;;;;5108107;28;20047;-81
2023/08/20 19:52:25;;;;;;;10.30;3.50;;;19.50;99.90;;;;;;5102178;28;20134;-82
2023/08/20 19:55:12;;;;;;;10.15;2.78;;;19.40;99.90;;;;;;5101152;28;20054;-80
2023/08/20 19:58:00;;;;;;;13.70;3.40;;;19.30;99.90;;;;;;5101882;28;20047;-79
2023/08/20 20:00:46;;;;;;;8.90;3.60;;;19.20;99.90;;;;;;5100413;28;20156;-77
2023/08/20 20:03:32;;;;;;;12.68;3.08;;;19.20;99.90;;;;;;5100809;28;20448;-79
2023/08/20 20:06:19;;;;;;;11.57;3.00;;;19.10;99.90;;;;;;5100034;28;20129;-79
2023/08/20 20:09:05;;;;;;;8.73;2.90;;;19.00;99.90;;;;;;5102729;28;20047;-79
2023/08/20 20:11:57;;;;;;;10.70;3.08;;;18.90;99.90;;;;;;5106698;28;20044;-81
2023/08/20 20:14:44;;;;;;;15.55;3.70;;;18.90;99.90;;;;;;5104459;28;20410;-84
2023/08/20 20:17:30;;;;;;;9.38;2.97;;;18.80;99.90;;;;;;5100695;28;20053;-79
2023/08/20 20:20:16;;;;;;;8.65;2.63;;;18.80;99.90;;;;;;5100735;28;20046;-79
2023/08/20 20:23:02;;;;;;;8.63;2.75;;;18.70;99.90;;;;;;5100197;28;20112;-77
2023/08/20 20:25:49;;;;;;;12.05;2.50;;;18.70;99.90;;;;;;5099658;28;20100;-77
2023/08/20 20:28:38;;;;;;;12.38;2.38;;;18.60;99.90;;;;;;5102184;28;20050;-77
2023/08/20 20:31:25;;;;;;;11.50;2.28;;;18.60;99.90;;;;;;5100460;28;20039;-78
2023/08/20 20:34:13;;;;;;;7.50;1.77;;;18.50;99.90;;;;;;5104047;28;20657;-78
2023/08/20 20:36:59;;;;;;;8.18;2.78;;;18.40;99.90;;;;;;5102426;28;20399;-79
2023/08/20 20:39:46;;;;;;;8.55;2.00;;;18.30;99.90;;;;;;5108344;28;20143;-80
2023/08/20 20:42:32;;;;;;;6.47;2.25;;;18.30;99.90;;;;;;5106544;28;20132;-81
2023/08/20 20:45:18;;;;;;;7.32;1.88;;;18.30;99.90;;;;;;5100640;28;20048;-80
2023/08/20 20:48:04;;;;;;;9.05;2.03;;;18.20;99.90;;;;;;5100182;28;20043;-78
2023/08/20 20:50:50;;;;;;;8.57;2.30;;;18.20;99.90;;;;;;5107759;28;20048;-78
2023/08/20 20:53:37;;;;;;;10.57;2.05;;;18.20;99.90;;;;;;5110066;28;20051;-79
2023/08/20 20:56:23;;;;;;;7.95;2.22;;;18.10;99.90;;;;;;5108370;28;20064;-78
2023/08/20 20:59:09;;;;;;;7.53;2.25;;;18.10;99.90;;;;;;5108666;28;20052;-78
2023/08/20 21:01:56;;;;;;;7.82;1.50;;;18.00;99.90;;;;;;5108261;28;20188;-79
2023/08/20 21:04:42;;;;;;;7.53;1.80;;;18.00;99.90;;;;;;5109434;28;20422;-78
2023/08/20 21:07:28;;;;;;;9.32;1.90;;;17.90;99.90;;;;;;5109277;28;20434;-80
2023/08/20 21:10:15;;;;;;;6.78;1.60;;;17.80;99.90;;;;;;5108727;28;20052;-78
2023/08/20 21:13:02;;;;;;;8.43;2.15;;;17.80;99.90;;;;;;5108527;28;20071;-79
2023/08/20 21:15:48;;;;;;;11.57;2.28;;;17.70;99.90;;;;;;5099667;28;20513;-83
2023/08/20 21:18:34;;;;;;;7.68;2.10;;;17.70;99.90;;;;;;5113513;28;20063;-79
2023/08/20 21:21:20;;;;;;;6.60;1.45;;;17.60;99.90;;;;;;5112396;28;20062;-84
2023/08/20 21:24:07;;;;;;;6.97;1.90;;;17.60;99.90;;;;;;5113315;28;20136;-78
2023/08/20 21:26:53;;;;;;;6.80;1.80;;;17.60;99.90;;;;;;5110644;28;20119;-80
2023/08/20 21:29:40;;;;;;;6.75;2.10;;;17.50;99.90;;;;;;5096733;28;20040;-78
2023/08/20 21:32:26;;;;;;;7.13;2.78;;;17.50;99.90;;;;;;5108623;28;20059;-84
2023/08/20 21:35:12;;;;;;;9.15;2.80;;;17.40;99.90;;;;;;5093951;28;20164;-83
2023/08/20 21:37:58;;;;;;;6.22;1.52;;;17.40;99.90;;;;;;5112306;28;20044;-86
2023/08/20 21:40:45;;;;;;;8.60;2.88;;;17.30;99.90;;;;;;5113533;28;20949;-84
2023/08/20 21:43:31;;;;;;;6.43;2.60;;;17.20;99.90;;;;;;5112252;28;20414;-81
2023/08/20 21:46:20;;;;;;;7.65;2.35;;;17.20;99.90;;;;;;5112653;28;20051;-84
2023/08/20 21:49:07;;;;;;;8.07;3.00;;;17.20;99.90;;;;;;5112565;28;20126;-84
2023/08/20 21:51:53;;;;;;;15.98;2.13;;;17.10;99.90;;;;;;5118933;28;20056;-84
2023/08/20 21:54:40;;;;;;;6.22;1.65;;;17.10;99.90;;;;;;5114985;28;20092;-84
2023/08/20 21:57:26;;;;;;;9.27;2.35;;;17.00;99.90;;;;;;5112372;28;20043;-84
2023/08/20 22:00:15;;;;;;;6.82;2.47;;;17.00;99.90;;;;;;5106754;28;20059;-82
2023/08/20 22:03:02;;;;;;;9.05;2.00;;;17.00;99.90;;;;;;5104778;28;20124;-82
2023/08/20 22:05:48;;;;;;;6.05;2.40;;;16.90;99.90;;;;;;5104004;28;20055;-81
2023/08/20 22:08:35;;;;;;;10.23;2.85;;;16.90;99.90;;;;;;5102812;28;20039;-81
2023/08/20 22:11:21;;;;;;;7.35;2.35;;;16.90;99.90;;;;;;5093633;28;20051;-84
2023/08/20 22:14:07;;;;;;;9.27;2.40;;;16.80;99.90;;;;;;5090394;28;20176;-84
2023/08/20 22:16:53;;;;;;;10.68;2.25;;;16.80;99.90;;;;;;5091704;28;20099;-84
2023/08/20 22:19:40;;;;;;;6.82;2.40;;;16.80;99.90;;;;;;5092922;28;20048;-84
2023/08/20 22:22:26;;;;;;;10.65;3.17;;;16.80;99.90;;;;;;5094256;28;20060;-80
2023/08/20 22:25:12;;;;;;;9.30;3.20;;;16.80;99.90;;;;;;5110717;28;20144;-83
2023/08/20 22:27:59;;;;;;;12.20;3.20;;;16.70;99.90;;;;;;5112049;28;20498;-81
2023/08/20 22:30:45;;;;;;;6.97;2.88;;;16.70;99.90;;;;;;5105487;28;20139;-81
2023/08/20 22:33:31;;;;;;;9.68;3.72;;;16.70;99.90;;;;;;5102931;28;20049;-82
2023/08/20 22:36:17;;;;;;;12.45;3.40;;;16.70;99.90;;;;;;5101794;28;20047;-83
2023/08/20 22:39:05;;;;;;;9.25;2.90;;;16.60;99.90;;;;;;5104923;28;20051;-84
2023/08/20 22:41:51;;;;;;;7.72;2.45;;;16.60;99.90;;;;;;5117519;28;20062;-80
2023/08/20 22:44:37;;;;;;;6.38;2.30;;;16.50;99.90;;;;;;5115532;28;20047;-81
2023/08/20 22:47:23;;;;;;;9.82;2.40;;;16.60;99.90;;;;;;5113323;28;20731;-83
2023/08/20 22:50:09;;;;;;;6.28;2.50;;;16.50;99.90;;;;;;5114310;28;20056;-85
2023/08/20 22:52:56;;;;;;;9.02;3.20;;;16.50;99.90;;;;;;5112319;28;20040;-81
2023/08/20 22:55:48;;;;;;;8.13;2.30;;;16.40;99.90;;;;;;5112714;28;20075;-84
2023/08/20 22:58:34;;;;;;;11.02;2.20;;;16.40;99.90;;;;;;5112028;28;20052;-83
2023/08/20 23:01:20;;;;;;;5.93;2.63;;;16.40;99.90;;;;;;5112954;28;20044;-83
2023/08/20 23:04:06;;;;;;;12.23;3.08;;;16.40;99.90;;;;;;5112690;28;20048;-82
2023/08/20 23:06:52;;;;;;;11.20;2.17;;;16.40;99.90;;;;;;5113240;28;20047;-82
2023/08/20 23:09:39;;;;;;;12.35;2.92;;;16.40;99.90;;;;;;5112837;28;20075;-82
2023/08/20 23:12:25;;;;;;;15.95;3.20;;;16.40;99.90;;;;;;5112615;28;20406;-84
2023/08/20 23:15:11;;;;;;;8.27;2.60;;;16.30;99.90;;;;;;5113078;28;20047;-86
2023/08/20 23:17:57;;;;;;;7.30;2.60;;;16.30;99.90;;;;;;5113106;28;20048;-82
2023/08/20 23:20:43;;;;;;;9.75;2.97;;;16.30;99.90;;;;;;5112564;28;20062;-82
2023/08/20 23:23:29;;;;;;;11.82;2.72;;;16.40;99.90;;;;;;5099769;28;20059;-82
2023/08/20 23:26:16;;;;;;;9.85;3.53;;;16.30;99.90;;;;;;5116519;28;20036;-83
2023/08/20 23:29:03;;;;;;;6.50;2.88;;;16.30;99.90;;;;;;5117891;28;20071;-85
2023/08/20 23:31:50;;;;;;;7.15;2.58;;;16.30;99.90;;;;;;5110653;28;20055;-86
2023/08/20 23:34:36;;;;;;;8.10;3.30;;;16.20;99.90;;;;;;5111888;28;20394;-84
2023/08/20 23:37:25;;;;;;;10.65;3.45;;;16.20;99.90;;;;;;5113564;28;20806;-85
2023/08/20 23:40:11;;;;;;;10.55;2.65;;;16.20;99.90;;;;;;5096827;28;20150;-85
2023/08/20 23:42:58;;;;;;;10.68;3.33;;;16.20;99.90;;;;;;5114981;28;20052;-83
2023/08/20 23:45:44;;;;;;;9.18;2.45;;;16.10;99.90;;;;;;5113453;28;20098;-82
2023/08/20 23:48:30;;;;;;;7.55;2.65;;;16.10;99.90;;;;;;5113820;28;20066;-86
2023/08/20 23:51:16;;;;;;;9.93;2.03;;;16.10;99.90;;;;;;5112346;28;20066;-82
2023/08/20 23:54:02;;;;;;;8.70;2.50;;;16.00;99.90;;;;;;5111328;28;20055;-84
2023/08/20 23:56:49;;;;;;;6.88;2.63;;;16.00;99.90;;;;;;5111174;28;20071;-86
2023/08/20 23:59:35;;;;;;;9.65;2.30;;;16.00;99.90;;;;;;5111943;28;20043;-85
